Charlotte, New York
Current Conditions -  °F | °C
As of 1:54 PM on Friday 24 Oct 2014 (Local Time) from KROC Reporting Station
Few Clouds Few Clouds  
Wind Chill: 59°   Ceiling: Unl
Heat Index: 59°   Visibility: 10mi
Dew Point: 39°   Wind: 13mph
Humidity: 48%   Direction: 280°W
Pressure: 29.95"   Gusts: 21mph
Location:  43.26°N, 77.61°W
Report Text: KROC 241754Z 28011G18KT 10SM FEW180 15/04 A2995 RMK AO2 SLP145 T01500039 10150 20072 58013
Loading
Personal Weather Stations






























Interactive Weather Map
Tropical Storm Tracking
New forecast layout! Learn more

10-Day Weather Forecast

Advertisements
Track Severe Weather on mobile